sensor_id;sensor_type;location;lat;lon;timestamp;pressure;altitude;pressure_sealevel;temperature
74750;BMP280;63269;53.330;-6.288;2023-06-14T00:02:11;101511.88;;;25.25
74750;BMP280;63269;53.330;-6.288;2023-06-14T00:04:37;101511.88;;;25.25
74750;BMP280;63269;53.330;-6.288;2023-06-14T00:07:05;101513.06;;;25.24
74750;BMP280;63269;53.330;-6.288;2023-06-14T00:09:33;101516.19;;;25.22
74750;BMP280;63269;53.330;-6.288;2023-06-14T00:11:58;101516.19;;;25.22
74750;BMP280;63269;53.330;-6.288;2023-06-14T00:14:24;101515.47;;;25.22
74750;BMP280;63269;53.330;-6.288;2023-06-14T00:16:49;101515.47;;;25.22
74750;BMP280;63269;53.330;-6.288;2023-06-14T00:19:14;101512.47;;;25.20
74750;BMP280;63269;53.330;-6.288;2023-06-14T00:21:41;101512.47;;;25.20
74750;BMP280;63269;53.330;-6.288;2023-06-14T00:24:07;101522.47;;;25.19
74750;BMP280;63269;53.330;-6.288;2023-06-14T00:26:32;101517.09;;;25.19
74750;BMP280;63269;53.330;-6.288;2023-06-14T00:28:58;101514.84;;;25.17
74750;BMP280;63269;53.330;-6.288;2023-06-14T00:31:23;101520.22;;;25.17
74750;BMP280;63269;53.330;-6.288;2023-06-14T00:33:49;101513.81;;;25.15
74750;BMP280;63269;53.330;-6.288;2023-06-14T00:36:14;101515.31;;;25.16
74750;BMP280;63269;53.330;-6.288;2023-06-14T00:38:40;101515.31;;;25.16
74750;BMP280;63269;53.330;-6.288;2023-06-14T00:41:05;101514.97;;;25.14
74750;BMP280;63269;53.330;-6.288;2023-06-14T00:43:31;101516.22;;;25.13
74750;BMP280;63269;53.330;-6.288;2023-06-14T00:45:56;101516.22;;;25.13
74750;BMP280;63269;53.330;-6.288;2023-06-14T00:48:22;101510.84;;;25.13
74750;BMP280;63269;53.330;-6.288;2023-06-14T00:50:49;101510.84;;;25.13
74750;BMP280;63269;53.330;-6.288;2023-06-14T00:53:15;101513.19;;;25.11
74750;BMP280;63269;53.330;-6.288;2023-06-14T00:55:43;101511.28;;;25.11
74750;BMP280;63269;53.330;-6.288;2023-06-14T00:58:09;101508.28;;;25.09
74750;BMP280;63269;53.330;-6.288;2023-06-14T01:00:34;101514.38;;;25.10
74750;BMP280;63269;53.330;-6.288;2023-06-14T01:03:01;101513.66;;;25.09
74750;BMP280;63269;53.330;-6.288;2023-06-14T01:05:26;101513.66;;;25.09
74750;BMP280;63269;53.330;-6.288;2023-06-14T01:13:35;101523.66;;;25.09
74750;BMP280;63269;53.330;-6.288;2023-06-14T01:16:02;101523.66;;;25.09
74750;BMP280;63269;53.330;-6.288;2023-06-14T01:18:29;101522.16;;;25.08
74750;BMP280;63269;53.330;-6.288;2023-06-14T01:20:55;101524.09;;;25.07
74750;BMP280;63269;53.330;-6.288;2023-06-14T01:23:22;101508.72;;;25.08
74750;BMP280;63269;53.330;-6.288;2023-06-14T01:25:48;101516.34;;;25.09
74750;BMP280;63269;53.330;-6.288;2023-06-14T01:28:19;101522.88;;;25.08
74750;BMP280;63269;53.330;-6.288;2023-06-14T01:30:49;101522.88;;;25.08
74750;BMP280;63269;53.330;-6.288;2023-06-14T01:33:22;101526.00;;;25.07
74750;BMP280;63269;53.330;-6.288;2023-06-14T01:35:50;101529.75;;;25.09
74750;BMP280;63269;53.330;-6.288;2023-06-14T01:38:19;101529.75;;;25.09
74750;BMP280;63269;53.330;-6.288;2023-06-14T01:40:45;101532.63;;;25.06
74750;BMP280;63269;53.330;-6.288;2023-06-14T01:43:16;101532.63;;;25.06
74750;BMP280;63269;53.330;-6.288;2023-06-14T01:45:42;101529.47;;;25.07
74750;BMP280;63269;53.330;-6.288;2023-06-14T01:48:11;101532.63;;;25.06
74750;BMP280;63269;53.330;-6.288;2023-06-14T01:50:37;101532.63;;;25.06
74750;BMP280;63269;53.330;-6.288;2023-06-14T01:53:02;101527.66;;;25.04
74750;BMP280;63269;53.330;-6.288;2023-06-14T01:55:28;101531.09;;;25.05
74750;BMP280;63269;53.330;-6.288;2023-06-14T01:57:53;101531.09;;;25.05
74750;BMP280;63269;53.330;-6.288;2023-06-14T02:00:20;101526.16;;;25.03
74750;BMP280;63269;53.330;-6.288;2023-06-14T02:02:46;101521.53;;;25.04
74750;BMP280;63269;53.330;-6.288;2023-06-14T02:05:12;101521.53;;;25.04
74750;BMP280;63269;53.330;-6.288;2023-06-14T02:07:38;101528.09;;;25.03
74750;BMP280;63269;53.330;-6.288;2023-06-14T02:10:04;101522.75;;;25.03
74750;BMP280;63269;53.330;-6.288;2023-06-14T02:12:29;101522.75;;;25.03
74750;BMP280;63269;53.330;-6.288;2023-06-14T02:14:55;101524.69;;;25.02
74750;BMP280;63269;53.330;-6.288;2023-06-14T02:17:21;101524.69;;;25.02
74750;BMP280;63269;53.330;-6.288;2023-06-14T02:19:47;101527.81;;;25.01
74750;BMP280;63269;53.330;-6.288;2023-06-14T02:22:13;101529.44;;;24.98
74750;BMP280;63269;53.330;-6.288;2023-06-14T02:24:40;101531.66;;;25.00
74750;BMP280;63269;53.330;-6.288;2023-06-14T02:27:06;101530.50;;;25.01
74750;BMP280;63269;53.330;-6.288;2023-06-14T02:29:33;101530.50;;;25.01
74750;BMP280;63269;53.330;-6.288;2023-06-14T02:31:59;101533.16;;;25.01
74750;BMP280;63269;53.330;-6.288;2023-06-14T02:34:24;101533.16;;;25.01
74750;BMP280;63269;53.330;-6.288;2023-06-14T02:36:50;101532.44;;;25.00
74750;BMP280;63269;53.330;-6.288;2023-06-14T02:39:15;101524.81;;;24.99
74750;BMP280;63269;53.330;-6.288;2023-06-14T02:41:41;101524.81;;;24.99
74750;BMP280;63269;53.330;-6.288;2023-06-14T02:44:07;101531.38;;;24.98
74750;BMP280;63269;53.330;-6.288;2023-06-14T02:46:32;101534.06;;;24.98
74750;BMP280;63269;53.330;-6.288;2023-06-14T02:48:58;101534.06;;;24.98
74750;BMP280;63269;53.330;-6.288;2023-06-14T02:51:24;101531.81;;;24.96
74750;BMP280;63269;53.330;-6.288;2023-06-14T02:53:50;101535.25;;;24.96
74750;BMP280;63269;53.330;-6.288;2023-06-14T02:56:15;101545.97;;;24.96
74750;BMP280;63269;53.330;-6.288;2023-06-14T02:58:42;101548.66;;;24.96
74750;BMP280;63269;53.330;-6.288;2023-06-14T03:01:08;101546.72;;;24.97
74750;BMP280;63269;53.330;-6.288;2023-06-14T03:03:35;101546.72;;;24.97
74750;BMP280;63269;53.330;-6.288;2023-06-14T03:06:00;101552.09;;;24.97
74750;BMP280;63269;53.330;-6.288;2023-06-14T03:08:30;101550.63;;;24.96
74750;BMP280;63269;53.330;-6.288;2023-06-14T03:10:57;101551.34;;;24.96
74750;BMP280;63269;53.330;-6.288;2023-06-14T03:13:23;101551.34;;;24.96
74750;BMP280;63269;53.330;-6.288;2023-06-14T03:15:49;101553.28;;;24.96
74750;BMP280;63269;53.330;-6.288;2023-06-14T03:18:17;101553.28;;;24.96
74750;BMP280;63269;53.330;-6.288;2023-06-14T03:20:43;101554.50;;;24.95
74750;BMP280;63269;53.330;-6.288;2023-06-14T03:23:11;101553.28;;;24.96
74750;BMP280;63269;53.330;-6.288;2023-06-14T03:25:36;101551.06;;;24.94
74750;BMP280;63269;53.330;-6.288;2023-06-14T03:28:04;101554.50;;;24.95
74750;BMP280;63269;53.330;-6.288;2023-06-14T03:30:30;101548.38;;;24.94
74750;BMP280;63269;53.330;-6.288;2023-06-14T03:32:56;101552.09;;;24.97
74750;BMP280;63269;53.330;-6.288;2023-06-14T03:35:22;101546.44;;;24.95
74750;BMP280;63269;53.330;-6.288;2023-06-14T03:37:48;101546.44;;;24.95
74750;BMP280;63269;53.330;-6.288;2023-06-14T03:40:15;101550.19;;;24.98
74750;BMP280;63269;53.330;-6.288;2023-06-14T03:42:41;101550.19;;;24.98
74750;BMP280;63269;53.330;-6.288;2023-06-14T03:45:07;101554.50;;;24.95
74750;BMP280;63269;53.330;-6.288;2023-06-14T03:47:34;101561.34;;;24.96
74750;BMP280;63269;53.330;-6.288;2023-06-14T03:50:00;101561.34;;;24.96
74750;BMP280;63269;53.330;-6.288;2023-06-14T03:52:26;101557.19;;;24.95
74750;BMP280;63269;53.330;-6.288;2023-06-14T03:54:52;101559.13;;;24.94
74750;BMP280;63269;53.330;-6.288;2023-06-14T03:57:18;101561.81;;;24.94
74750;BMP280;63269;53.330;-6.288;2023-06-14T03:59:43;101563.28;;;24.95
74750;BMP280;63269;53.330;-6.288;2023-06-14T04:02:09;101562.56;;;24.95
74750;BMP280;63269;53.330;-6.288;2023-06-14T04:04:35;101568.66;;;24.95
74750;BMP280;63269;53.330;-6.288;2023-06-14T04:07:01;101568.66;;;24.95
74750;BMP280;63269;53.330;-6.288;2023-06-14T04:09:31;101573.28;;;24.95
74750;BMP280;63269;53.330;-6.288;2023-06-14T04:11:57;101574.47;;;24.94
74750;BMP280;63269;53.330;-6.288;2023-06-14T04:14:22;101565.97;;;24.95
74750;BMP280;63269;53.330;-6.288;2023-06-14T04:16:49;101571.34;;;24.95
74750;BMP280;63269;53.330;-6.288;2023-06-14T04:19:15;101572.53;;;24.94
74750;BMP280;63269;53.330;-6.288;2023-06-14T04:21:41;101572.53;;;24.94
74750;BMP280;63269;53.330;-6.288;2023-06-14T04:24:07;101577.16;;;24.94
74750;BMP280;63269;53.330;-6.288;2023-06-14T04:26:42;101573.72;;;24.93
74750;BMP280;63269;53.330;-6.288;2023-06-14T04:29:10;101577.16;;;24.94
74750;BMP280;63269;53.330;-6.288;2023-06-14T04:31:42;101579.09;;;24.93
74750;BMP280;63269;53.330;-6.288;2023-06-14T04:34:08;101571.78;;;24.94
74750;BMP280;63269;53.330;-6.288;2023-06-14T04:36:34;101575.97;;;24.95
74750;BMP280;63269;53.330;-6.288;2023-06-14T04:39:03;101579.84;;;24.94
74750;BMP280;63269;53.330;-6.288;2023-06-14T04:41:32;101579.84;;;24.94
74750;BMP280;63269;53.330;-6.288;2023-06-14T04:43:58;101577.91;;;24.94
74750;BMP280;63269;53.330;-6.288;2023-06-14T04:46:27;101577.91;;;24.94
74750;BMP280;63269;53.330;-6.288;2023-06-14T04:48:53;101583.69;;;24.93
74750;BMP280;63269;53.330;-6.288;2023-06-14T04:51:19;101583.69;;;24.93
74750;BMP280;63269;53.330;-6.288;2023-06-14T04:53:47;101583.69;;;24.93
74750;BMP280;63269;53.330;-6.288;2023-06-14T04:56:14;101585.63;;;24.92
74750;BMP280;63269;53.330;-6.288;2023-06-14T04:58:40;101591.75;;;24.93
74750;BMP280;63269;53.330;-6.288;2023-06-14T05:01:05;101591.75;;;24.93
74750;BMP280;63269;53.330;-6.288;2023-06-14T05:03:34;101591.00;;;24.92
74750;BMP280;63269;53.330;-6.288;2023-06-14T05:05:59;101590.28;;;24.92
74750;BMP280;63269;53.330;-6.288;2023-06-14T05:08:25;101591.75;;;24.93
74750;BMP280;63269;53.330;-6.288;2023-06-14T05:10:54;101579.84;;;24.94
74750;BMP280;63269;53.330;-6.288;2023-06-14T05:13:20;101579.84;;;24.94
74750;BMP280;63269;53.330;-6.288;2023-06-14T05:15:48;101595.66;;;24.92
74750;BMP280;63269;53.330;-6.288;2023-06-14T05:18:14;101588.78;;;24.91
74750;BMP280;63269;53.330;-6.288;2023-06-14T05:20:41;101596.38;;;24.92
74750;BMP280;63269;53.330;-6.288;2023-06-14T05:23:09;101591.00;;;24.92
74750;BMP280;63269;53.330;-6.288;2023-06-14T05:25:41;101591.00;;;24.92
74750;BMP280;63269;53.330;-6.288;2023-06-14T05:28:07;101592.19;;;24.91
74750;BMP280;63269;53.330;-6.288;2023-06-14T05:30:33;101588.78;;;24.91
74750;BMP280;63269;53.330;-6.288;2023-06-14T05:32:58;101586.09;;;24.91
74750;BMP280;63269;53.330;-6.288;2023-06-14T05:35:24;101597.56;;;24.91
74750;BMP280;63269;53.330;-6.288;2023-06-14T05:37:52;101597.56;;;24.91
74750;BMP280;63269;53.330;-6.288;2023-06-14T05:40:17;101598.34;;;24.92
74750;BMP280;63269;53.330;-6.288;2023-06-14T05:42:44;101598.34;;;24.92
74750;BMP280;63269;53.330;-6.288;2023-06-14T05:45:09;101594.13;;;24.91
74750;BMP280;63269;53.330;-6.288;2023-06-14T05:47:35;101603.69;;;24.92
74750;BMP280;63269;53.330;-6.288;2023-06-14T05:50:03;101603.69;;;24.92
74750;BMP280;63269;53.330;-6.288;2023-06-14T05:52:28;101602.19;;;24.91
74750;BMP280;63269;53.330;-6.288;2023-06-14T05:54:55;101602.94;;;24.91
74750;BMP280;63269;53.330;-6.288;2023-06-14T05:57:23;101602.94;;;24.91
74750;BMP280;63269;53.330;-6.288;2023-06-14T05:59:49;101609.50;;;24.90
74750;BMP280;63269;53.330;-6.288;2023-06-14T06:02:15;101609.50;;;24.90
74750;BMP280;63269;53.330;-6.288;2023-06-14T06:04:41;101609.50;;;24.90
74750;BMP280;63269;53.330;-6.288;2023-06-14T06:07:06;101620.25;;;24.90
74750;BMP280;63269;53.330;-6.288;2023-06-14T06:09:32;101621.41;;;24.89
74750;BMP280;63269;53.330;-6.288;2023-06-14T06:11:58;101633.66;;;24.90
74750;BMP280;63269;53.330;-6.288;2023-06-14T06:14:23;101633.66;;;24.90
74750;BMP280;63269;53.330;-6.288;2023-06-14T06:16:48;101632.59;;;24.88
74750;BMP280;63269;53.330;-6.288;2023-06-14T06:19:14;101627.97;;;24.88
74750;BMP280;63269;53.330;-6.288;2023-06-14T06:21:40;101636.78;;;24.89
74750;BMP280;63269;53.330;-6.288;2023-06-14T06:24:06;101636.78;;;24.89
74750;BMP280;63269;53.330;-6.288;2023-06-14T06:26:32;101633.34;;;24.88
74750;BMP280;63269;53.330;-6.288;2023-06-14T06:28:58;101647.50;;;24.89
74750;BMP280;63269;53.330;-6.288;2023-06-14T06:31:24;101646.78;;;24.88
74750;BMP280;63269;53.330;-6.288;2023-06-14T06:33:53;101644.81;;;24.89
74750;BMP280;63269;53.330;-6.288;2023-06-14T06:36:19;101651.41;;;24.88
74750;BMP280;63269;53.330;-6.288;2023-06-14T06:38:45;101651.41;;;24.88
74750;BMP280;63269;53.330;-6.288;2023-06-14T06:41:10;101650.94;;;24.89
74750;BMP280;63269;53.330;-6.288;2023-06-14T06:43:36;101650.19;;;24.89
74750;BMP280;63269;53.330;-6.288;2023-06-14T06:46:01;101650.94;;;24.89
74750;BMP280;63269;53.330;-6.288;2023-06-14T06:48:27;101650.94;;;24.89
74750;BMP280;63269;53.330;-6.288;2023-06-14T06:50:53;101658.72;;;24.87
74750;BMP280;63269;53.330;-6.288;2023-06-14T06:53:19;101657.50;;;24.88
74750;BMP280;63269;53.330;-6.288;2023-06-14T06:55:44;101655.25;;;24.87
74750;BMP280;63269;53.330;-6.288;2023-06-14T06:58:10;101661.38;;;24.87
74750;BMP280;63269;53.330;-6.288;2023-06-14T07:00:35;101661.38;;;24.87
74750;BMP280;63269;53.330;-6.288;2023-06-14T07:03:01;101661.38;;;24.87
74750;BMP280;63269;53.330;-6.288;2023-06-14T07:05:26;101666.00;;;24.87
74750;BMP280;63269;53.330;-6.288;2023-06-14T07:07:52;101666.00;;;24.87
74750;BMP280;63269;53.330;-6.288;2023-06-14T07:10:17;101670.94;;;24.88
74750;BMP280;63269;53.330;-6.288;2023-06-14T07:12:43;101673.59;;;24.88
74750;BMP280;63269;53.330;-6.288;2023-06-14T07:15:09;101673.59;;;24.88
74750;BMP280;63269;53.330;-6.288;2023-06-14T07:17:35;101666.75;;;24.87
74750;BMP280;63269;53.330;-6.288;2023-06-14T07:20:02;101674.81;;;24.87
74750;BMP280;63269;53.330;-6.288;2023-06-14T07:22:41;101678.97;;;24.88
74750;BMP280;63269;53.330;-6.288;2023-06-14T07:25:09;101678.97;;;24.88
74750;BMP280;63269;53.330;-6.288;2023-06-14T07:27:34;101672.13;;;24.87
74750;BMP280;63269;53.330;-6.288;2023-06-14T07:30:00;101672.13;;;24.87
74750;BMP280;63269;53.330;-6.288;2023-06-14T07:32:25;101682.41;;;24.89
74750;BMP280;63269;53.330;-6.288;2023-06-14T07:34:50;101689.72;;;24.88
74750;BMP280;63269;53.330;-6.288;2023-06-14T07:37:16;101689.72;;;24.88
74750;BMP280;63269;53.330;-6.288;2023-06-14T07:39:41;101690.91;;;24.87
74750;BMP280;63269;53.330;-6.288;2023-06-14T07:42:07;101690.91;;;24.87
74750;BMP280;63269;53.330;-6.288;2023-06-14T07:44:32;101687.47;;;24.87
74750;BMP280;63269;53.330;-6.288;2023-06-14T07:46:58;101688.22;;;24.87
74750;BMP280;63269;53.330;-6.288;2023-06-14T07:49:25;101698.97;;;24.87
74750;BMP280;63269;53.330;-6.288;2023-06-14T07:51:51;101697.47;;;24.86
74750;BMP280;63269;53.330;-6.288;2023-06-14T07:54:16;101696.28;;;24.87
74750;BMP280;63269;53.330;-6.288;2023-06-14T07:56:42;101705.81;;;24.88
74750;BMP280;63269;53.330;-6.288;2023-06-14T07:59:08;101698.97;;;24.87
74750;BMP280;63269;53.330;-6.288;2023-06-14T08:01:34;101712.38;;;24.87
74750;BMP280;63269;53.330;-6.288;2023-06-14T08:04:00;101705.81;;;24.88
74750;BMP280;63269;53.330;-6.288;2023-06-14T08:06:25;101705.06;;;24.88
74750;BMP280;63269;53.330;-6.288;2023-06-14T08:08:51;101706.25;;;24.87
74750;BMP280;63269;53.330;-6.288;2023-06-14T08:11:16;101713.13;;;24.88
74750;BMP280;63269;53.330;-6.288;2023-06-14T08:13:42;101717.75;;;24.87
74750;BMP280;63269;53.330;-6.288;2023-06-14T08:16:07;101717.75;;;24.87
74750;BMP280;63269;53.330;-6.288;2023-06-14T08:18:32;101712.03;;;24.85
74750;BMP280;63269;53.330;-6.288;2023-06-14T08:20:58;101716.97;;;24.87
74750;BMP280;63269;53.330;-6.288;2023-06-14T08:23:23;101716.97;;;24.87
74750;BMP280;63269;53.330;-6.288;2023-06-14T08:25:49;101715.47;;;24.86
74750;BMP280;63269;53.330;-6.288;2023-06-14T08:28:14;101721.59;;;24.86
74750;BMP280;63269;53.330;-6.288;2023-06-14T08:30:42;101722.66;;;24.89
74750;BMP280;63269;53.330;-6.288;2023-06-14T08:33:07;101725.34;;;24.89
74750;BMP280;63269;53.330;-6.288;2023-06-14T08:35:33;101732.19;;;24.90
74750;BMP280;63269;53.330;-6.288;2023-06-14T08:37:58;101726.09;;;24.89
74750;BMP280;63269;53.330;-6.288;2023-06-14T08:40:24;101726.09;;;24.89
74750;BMP280;63269;53.330;-6.288;2023-06-14T08:42:51;101724.59;;;24.88
74750;BMP280;63269;53.330;-6.288;2023-06-14T08:45:19;101724.59;;;24.88
74750;BMP280;63269;53.330;-6.288;2023-06-14T08:47:45;101734.13;;;24.89
74750;BMP280;63269;53.330;-6.288;2023-06-14T08:50:26;101734.13;;;24.89
74750;BMP280;63269;53.330;-6.288;2023-06-14T08:52:54;101738.03;;;24.88
74750;BMP280;63269;53.330;-6.288;2023-06-14T08:55:23;101740.25;;;24.90
74750;BMP280;63269;53.330;-6.288;2023-06-14T08:57:54;101745.63;;;24.90
74750;BMP280;63269;53.330;-6.288;2023-06-14T09:00:22;101749.50;;;24.89
74750;BMP280;63269;53.330;-6.288;2023-06-14T09:02:47;101749.50;;;24.89
74750;BMP280;63269;53.330;-6.288;2023-06-14T09:05:13;101750.25;;;24.89
74750;BMP280;63269;53.330;-6.288;2023-06-14T09:07:42;101750.25;;;24.89
74750;BMP280;63269;53.330;-6.288;2023-06-14T09:10:13;101760.56;;;24.91
74750;BMP280;63269;53.330;-6.288;2023-06-14T09:12:39;101761.28;;;24.91
74750;BMP280;63269;53.330;-6.288;2023-06-14T09:15:07;101761.28;;;24.91
74750;BMP280;63269;53.330;-6.288;2023-06-14T09:17:38;101762.78;;;24.92
74750;BMP280;63269;53.330;-6.288;2023-06-14T09:20:04;101762.78;;;24.92
74750;BMP280;63269;53.330;-6.288;2023-06-14T09:22:39;101757.13;;;24.90
74750;BMP280;63269;53.330;-6.288;2023-06-14T09:25:05;101761.72;;;24.90
74750;BMP280;63269;53.330;-6.288;2023-06-14T09:27:33;101761.72;;;24.90
74750;BMP280;63269;53.330;-6.288;2023-06-14T09:29:58;101760.25;;;24.89
74750;BMP280;63269;53.330;-6.288;2023-06-14T09:32:24;101760.25;;;24.89
74750;BMP280;63269;53.330;-6.288;2023-06-14T09:34:50;101773.97;;;24.91
74750;BMP280;63269;53.330;-6.288;2023-06-14T09:37:29;101773.97;;;24.91
74750;BMP280;63269;53.330;-6.288;2023-06-14T09:39:55;101772.28;;;24.84
74750;BMP280;63269;53.330;-6.288;2023-06-14T09:42:21;101772.28;;;24.84
74750;BMP280;63269;53.330;-6.288;2023-06-14T09:44:48;101772.59;;;24.86
74750;BMP280;63269;53.330;-6.288;2023-06-14T09:47:18;101771.44;;;24.87
74750;BMP280;63269;53.330;-6.288;2023-06-14T09:49:44;101780.22;;;24.88
74750;BMP280;63269;53.330;-6.288;2023-06-14T09:52:19;101780.22;;;24.88
74750;BMP280;63269;53.330;-6.288;2023-06-14T09:54:47;101773.66;;;24.89
74750;BMP280;63269;53.330;-6.288;2023-06-14T09:57:14;101765.59;;;24.89
74750;BMP280;63269;53.330;-6.288;2023-06-14T09:59:42;101772.91;;;24.88
74750;BMP280;63269;53.330;-6.288;2023-06-14T10:02:21;101762.91;;;24.89
74750;BMP280;63269;53.330;-6.288;2023-06-14T10:04:55;101772.19;;;24.88
74750;BMP280;63269;53.330;-6.288;2023-06-14T10:07:23;101774.13;;;24.87
74750;BMP280;63269;53.330;-6.288;2023-06-14T10:09:52;101771.44;;;24.87
74750;BMP280;63269;53.330;-6.288;2023-06-14T10:12:18;101771.44;;;24.87
74750;BMP280;63269;53.330;-6.288;2023-06-14T10:14:51;101770.66;;;24.87
74750;BMP280;63269;53.330;-6.288;2023-06-14T10:17:56;101770.66;;;24.87
74750;BMP280;63269;53.330;-6.288;2023-06-14T10:20:30;101776.47;;;24.85
74750;BMP280;63269;53.330;-6.288;2023-06-14T10:23:13;101776.47;;;24.85
74750;BMP280;63269;53.330;-6.288;2023-06-14T10:25:42;101784.50;;;24.85
74750;BMP280;63269;53.330;-6.288;2023-06-14T10:28:25;101774.50;;;24.86
74750;BMP280;63269;53.330;-6.288;2023-06-14T10:31:07;101774.50;;;24.86
74750;BMP280;63269;53.330;-6.288;2023-06-14T10:33:34;101779.59;;;24.84
74750;BMP280;63269;53.330;-6.288;2023-06-14T10:39:12;101784.50;;;24.85
74750;BMP280;63269;53.330;-6.288;2023-06-14T10:41:40;101777.66;;;24.84
74750;BMP280;63269;53.330;-6.288;2023-06-14T10:46:45;101779.13;;;24.85
74750;BMP280;63269;53.330;-6.288;2023-06-14T10:49:11;101773.47;;;24.83
74750;BMP280;63269;53.330;-6.288;2023-06-14T10:51:42;101773.47;;;24.83
74750;BMP280;63269;53.330;-6.288;2023-06-14T10:54:14;101782.28;;;24.84
74750;BMP280;63269;53.330;-6.288;2023-06-14T10:56:51;101783.44;;;24.83
74750;BMP280;63269;53.330;-6.288;2023-06-14T10:59:17;101786.91;;;24.83
74750;BMP280;63269;53.330;-6.288;2023-06-14T11:02:18;101779.59;;;24.84
74750;BMP280;63269;53.330;-6.288;2023-06-14T11:04:52;101776.16;;;24.83
74750;BMP280;63269;53.330;-6.288;2023-06-14T11:07:47;101784.22;;;24.83
74750;BMP280;63269;53.330;-6.288;2023-06-14T11:10:36;101773.91;;;24.82
74750;BMP280;63269;53.330;-6.288;2023-06-14T11:13:05;101773.91;;;24.82
74750;BMP280;63269;53.330;-6.288;2023-06-14T11:15:37;101769.28;;;24.82
74750;BMP280;63269;53.330;-6.288;2023-06-14T11:18:05;101769.28;;;24.82
74750;BMP280;63269;53.330;-6.288;2023-06-14T11:20:33;101767.81;;;24.81
74750;BMP280;63269;53.330;-6.288;2023-06-14T11:22:59;101771.97;;;24.82
74750;BMP280;63269;53.330;-6.288;2023-06-14T11:25:25;101771.97;;;24.82
74750;BMP280;63269;53.330;-6.288;2023-06-14T11:27:52;101767.34;;;24.83
74750;BMP280;63269;53.330;-6.288;2023-06-14T11:30:18;101760.50;;;24.82
74750;BMP280;63269;53.330;-6.288;2023-06-14T11:32:47;101764.66;;;24.83
74750;BMP280;63269;53.330;-6.288;2023-06-14T11:35:13;101769.13;;;24.77
74750;BMP280;63269;53.330;-6.288;2023-06-14T11:37:39;101769.13;;;24.77
74750;BMP280;63269;53.330;-6.288;2023-06-14T11:40:06;101767.94;;;24.78
74750;BMP280;63269;53.330;-6.288;2023-06-14T11:42:36;101761.69;;;24.81
74750;BMP280;63269;53.330;-6.288;2023-06-14T11:45:03;101766.59;;;24.82
74750;BMP280;63269;53.330;-6.288;2023-06-14T11:47:33;101766.59;;;24.82
74750;BMP280;63269;53.330;-6.288;2023-06-14T11:50:00;101752.88;;;24.80
74750;BMP280;63269;53.330;-6.288;2023-06-14T11:52:26;101760.19;;;24.80
74750;BMP280;63269;53.330;-6.288;2023-06-14T11:54:52;101762.44;;;24.81
74750;BMP280;63269;53.330;-6.288;2023-06-14T11:57:18;101756.31;;;24.81
74750;BMP280;63269;53.330;-6.288;2023-06-14T11:59:44;101753.19;;;24.82
74750;BMP280;63269;53.330;-6.288;2023-06-14T12:02:17;101752.44;;;24.82
74750;BMP280;63269;53.330;-6.288;2023-06-14T12:04:43;101752.44;;;24.82
74750;BMP280;63269;53.330;-6.288;2023-06-14T12:07:13;101746.75;;;24.80
74750;BMP280;63269;53.330;-6.288;2023-06-14T12:12:26;101752.44;;;24.82
74750;BMP280;63269;53.330;-6.288;2023-06-14T12:14:53;101759.00;;;24.81
74750;BMP280;63269;53.330;-6.288;2023-06-14T12:17:19;101757.06;;;24.81
74750;BMP280;63269;53.330;-6.288;2023-06-14T12:19:45;101757.06;;;24.81
74750;BMP280;63269;53.330;-6.288;2023-06-14T12:22:12;101752.88;;;24.80
74750;BMP280;63269;53.330;-6.288;2023-06-14T12:24:37;101750.19;;;24.80
74750;BMP280;63269;53.330;-6.288;2023-06-14T12:27:04;101757.50;;;24.80
74750;BMP280;63269;53.330;-6.288;2023-06-14T12:29:30;101750.50;;;24.82
74750;BMP280;63269;53.330;-6.288;2023-06-14T12:31:56;101750.50;;;24.82
74750;BMP280;63269;53.330;-6.288;2023-06-14T12:34:25;101745.59;;;24.81
74750;BMP280;63269;53.330;-6.288;2023-06-14T12:36:54;101743.66;;;24.81
74750;BMP280;63269;53.330;-6.288;2023-06-14T12:39:20;101743.66;;;24.81
74750;BMP280;63269;53.330;-6.288;2023-06-14T12:41:46;101748.28;;;24.81
74750;BMP280;63269;53.330;-6.288;2023-06-14T12:44:13;101748.28;;;24.81
74750;BMP280;63269;53.330;-6.288;2023-06-14T12:46:39;101747.81;;;24.82
74750;BMP280;63269;53.330;-6.288;2023-06-14T12:49:07;101747.81;;;24.82
74750;BMP280;63269;53.330;-6.288;2023-06-14T12:51:32;101752.88;;;24.80
74750;BMP280;63269;53.330;-6.288;2023-06-14T12:53:58;101751.69;;;24.81
74750;BMP280;63269;53.330;-6.288;2023-06-14T12:56:23;101757.06;;;24.81
74750;BMP280;63269;53.330;-6.288;2023-06-14T12:58:49;101757.06;;;24.81
74750;BMP280;63269;53.330;-6.288;2023-06-14T13:01:14;101757.50;;;24.80
74750;BMP280;63269;53.330;-6.288;2023-06-14T13:03:40;101760.94;;;24.80
74750;BMP280;63269;53.330;-6.288;2023-06-14T13:06:05;101754.38;;;24.81
74750;BMP280;63269;53.330;-6.288;2023-06-14T13:08:31;101768.53;;;24.82
74750;BMP280;63269;53.330;-6.288;2023-06-14T13:10:56;101768.53;;;24.82
74750;BMP280;63269;53.330;-6.288;2023-06-14T13:13:22;101757.06;;;24.81
74750;BMP280;63269;53.330;-6.288;2023-06-14T13:15:48;101757.06;;;24.81
74750;BMP280;63269;53.330;-6.288;2023-06-14T13:18:15;101751.69;;;24.81
74750;BMP280;63269;53.330;-6.288;2023-06-14T13:20:41;101752.44;;;24.82
74750;BMP280;63269;53.330;-6.288;2023-06-14T13:23:07;101752.44;;;24.82
74750;BMP280;63269;53.330;-6.288;2023-06-14T13:25:37;101757.81;;;24.82
74750;BMP280;63269;53.330;-6.288;2023-06-14T13:28:03;101763.19;;;24.82
74750;BMP280;63269;53.330;-6.288;2023-06-14T13:30:29;101761.25;;;24.82
74750;BMP280;63269;53.330;-6.288;2023-06-14T13:32:55;101761.25;;;24.82
74750;BMP280;63269;53.330;-6.288;2023-06-14T13:35:21;101755.13;;;24.82
74750;BMP280;63269;53.330;-6.288;2023-06-14T13:37:47;101755.13;;;24.82
74750;BMP280;63269;53.330;-6.288;2023-06-14T13:40:13;101753.19;;;24.82
74750;BMP280;63269;53.330;-6.288;2023-06-14T13:42:38;101763.19;;;24.82
74750;BMP280;63269;53.330;-6.288;2023-06-14T13:45:05;101763.19;;;24.82
74750;BMP280;63269;53.330;-6.288;2023-06-14T13:47:31;101749.75;;;24.82
74750;BMP280;63269;53.330;-6.288;2023-06-14T13:49:57;101755.88;;;24.82
74750;BMP280;63269;53.330;-6.288;2023-06-14T13:52:23;101755.88;;;24.82
74750;BMP280;63269;53.330;-6.288;2023-06-14T13:54:48;101755.13;;;24.82
74750;BMP280;63269;53.330;-6.288;2023-06-14T13:57:15;101755.13;;;24.82
74750;BMP280;63269;53.330;-6.288;2023-06-14T13:59:40;101760.50;;;24.82